createdAt,value
2018-10-02T00:01:44.947Z,55.27
2018-10-02T00:04:14.985Z,49.80
2018-10-02T00:06:46.423Z,47.50
2018-10-02T00:09:17.349Z,53.60
2018-10-02T00:11:52.382Z,67.00
2018-10-02T00:14:26.316Z,53.03
2018-10-02T00:16:56.608Z,52.03
2018-10-02T00:19:26.749Z,53.73
2018-10-02T00:21:56.982Z,56.63
2018-10-02T00:24:27.121Z,51.70
2018-10-02T00:26:57.417Z,57.40
2018-10-02T00:29:27.941Z,52.23
2018-10-02T00:31:58.200Z,50.97
2018-10-02T00:34:28.552Z,59.83
2018-10-02T00:36:58.598Z,59.23
2018-10-02T00:39:29.061Z,60.47
2018-10-02T00:41:59.306Z,64.37
2018-10-02T00:44:31.088Z,56.47
2018-10-02T00:47:02.368Z,62.13
2018-10-02T00:49:33.411Z,55.03
2018-10-02T00:52:05.157Z,63.60
2018-10-02T00:54:36.072Z,61.60
2018-10-02T00:57:06.612Z,65.13
2018-10-02T00:59:36.822Z,61.83
2018-10-02T01:02:06.911Z,60.77
2018-10-02T01:04:37.095Z,56.83
2018-10-02T01:07:07.030Z,52.10
2018-10-02T01:09:38.276Z,49.00
2018-10-02T01:12:08.550Z,54.13
2018-10-02T01:14:38.630Z,50.83
2018-10-02T01:17:08.609Z,60.40
2018-10-02T01:19:38.900Z,53.60
2018-10-02T01:22:09.040Z,46.13
2018-10-02T01:24:39.203Z,47.20
2018-10-02T01:27:09.263Z,47.57
2018-10-02T01:29:39.668Z,51.73
2018-10-02T01:32:09.739Z,50.50
2018-10-02T01:34:39.885Z,42.63
2018-10-02T01:37:10.103Z,47.40
2018-10-02T01:39:41.223Z,48.93
2018-10-02T01:42:11.442Z,44.93
2018-10-02T01:44:41.283Z,47.70
2018-10-02T01:47:11.544Z,46.80
2018-10-02T01:49:41.653Z,50.67
2018-10-02T01:52:11.866Z,48.33
2018-10-02T01:54:42.066Z,39.17
2018-10-02T01:57:12.462Z,43.17
2018-10-02T01:59:42.590Z,46.00
2018-10-02T02:02:12.992Z,47.80
2018-10-02T02:04:43.057Z,43.83
2018-10-02T02:07:13.293Z,42.93
2018-10-02T02:09:43.704Z,47.10
2018-10-02T02:12:14.863Z,45.80
2018-10-02T02:14:44.776Z,50.40
2018-10-02T02:17:14.698Z,44.20
2018-10-02T02:19:44.901Z,43.87
2018-10-02T02:22:14.891Z,41.37
2018-10-02T02:24:45.161Z,40.93
2018-10-02T02:27:15.271Z,41.07
2018-10-02T02:29:46.396Z,42.30
2018-10-02T02:32:16.478Z,41.93
2018-10-02T02:34:46.600Z,46.90
2018-10-02T02:37:16.707Z,40.27
2018-10-02T02:39:47.063Z,44.20
2018-10-02T02:42:17.400Z,49.50
2018-10-02T02:44:48.239Z,46.57
2018-10-02T02:47:23.250Z,42.70
2018-10-02T02:49:57.994Z,40.67
2018-10-02T02:52:30.354Z,45.90
2018-10-02T02:55:00.599Z,46.27
2018-10-02T02:57:30.988Z,47.27
2018-10-02T03:00:01.099Z,49.33
2018-10-02T03:02:31.098Z,46.50
2018-10-02T03:05:01.416Z,49.20
2018-10-02T03:07:31.756Z,48.73
2018-10-02T03:10:03.500Z,45.40
2018-10-02T03:12:33.318Z,46.53
2018-10-02T03:15:03.354Z,45.50
2018-10-02T03:17:33.648Z,45.30
2018-10-02T03:20:04.003Z,53.17
2018-10-02T03:22:34.906Z,45.13
2018-10-02T03:25:05.158Z,46.77
2018-10-02T03:27:35.305Z,48.53
2018-10-02T03:30:05.837Z,53.87
2018-10-02T03:32:36.725Z,53.50
2018-10-02T03:35:07.257Z,47.20
2018-10-02T03:37:37.234Z,49.90
2018-10-02T03:40:09.072Z,49.03
2018-10-02T03:42:39.053Z,49.93
2018-10-02T03:45:10.128Z,47.20
2018-10-02T03:47:41.547Z,49.23
2018-10-02T03:50:11.696Z,48.00
2018-10-02T03:52:41.926Z,44.50
2018-10-02T03:55:13.157Z,47.87
2018-10-02T03:57:43.248Z,55.97
2018-10-02T04:00:13.565Z,45.73
2018-10-02T04:02:44.611Z,54.83
2018-10-02T04:05:15.792Z,51.70
2018-10-02T04:07:46.031Z,48.23
2018-10-02T04:10:16.157Z,49.87
2018-10-02T04:12:46.406Z,44.60
2018-10-02T04:15:20.886Z,40.13
2018-10-02T04:17:51.287Z,42.57
2018-10-02T04:20:21.947Z,33.63
2018-10-02T04:22:52.320Z,29.10
2018-10-02T04:25:22.605Z,23.33
2018-10-02T04:27:52.724Z,20.77
2018-10-02T04:30:22.987Z,22.37
2018-10-02T04:32:53.884Z,23.33
2018-10-02T04:35:24.421Z,24.20
2018-10-02T04:37:55.020Z,24.57
2018-10-02T04:40:25.301Z,25.50
2018-10-02T04:42:55.484Z,26.30
2018-10-02T04:45:25.719Z,26.77
2018-10-02T04:47:56.450Z,21.70
2018-10-02T04:50:27.648Z,22.13
2018-10-02T04:52:59.300Z,23.47
2018-10-02T04:55:30.540Z,20.13
2018-10-02T04:58:00.875Z,20.30
2018-10-02T05:00:31.084Z,22.80
2018-10-02T05:03:01.178Z,19.67
2018-10-02T05:05:31.513Z,19.20
2018-10-02T05:08:02.298Z,20.53
2018-10-02T05:10:33.297Z,18.30
2018-10-02T05:13:03.995Z,20.77
2018-10-02T05:15:38.623Z,18.60
2018-10-02T05:18:08.353Z,15.03
2018-10-02T05:20:38.171Z,16.97
2018-10-02T05:23:08.174Z,20.23
2018-10-02T05:25:38.706Z,21.20
2018-10-02T05:28:08.563Z,18.13
2018-10-02T05:30:38.412Z,19.23
2018-10-02T05:33:08.272Z,17.63
2018-10-02T05:35:38.035Z,18.57
2018-10-02T05:38:07.843Z,17.53
2018-10-02T05:40:37.845Z,15.50
2018-10-02T05:43:08.082Z,19.77
2018-10-02T05:45:37.892Z,16.60
2018-10-02T05:48:07.748Z,16.00
2018-10-02T05:50:37.591Z,15.37
2018-10-02T05:53:07.993Z,12.93
2018-10-02T05:55:38.301Z,11.43
2018-10-02T05:58:08.711Z,13.67
2018-10-02T06:00:39.053Z,18.03
2018-10-02T06:03:09.426Z,10.50
2018-10-02T06:05:39.685Z,10.07
2018-10-02T06:08:09.861Z,10.10
2018-10-02T06:10:40.094Z,9.63
2018-10-02T06:13:10.614Z,15.33
2018-10-02T06:15:41.536Z,11.60
2018-10-02T06:18:11.940Z,11.83
2018-10-02T06:20:42.489Z,13.83
2018-10-02T06:23:12.719Z,7.37
2018-10-02T06:25:42.762Z,7.23
2018-10-02T06:28:13.118Z,11.23
2018-10-02T06:30:44.025Z,9.33
2018-10-02T06:33:15.700Z,7.80
2018-10-02T06:35:45.866Z,8.77
2018-10-02T06:38:15.950Z,9.23
2018-10-02T06:40:46.155Z,8.37
2018-10-02T06:43:16.214Z,7.17
2018-10-02T06:45:46.239Z,7.10
2018-10-02T06:48:16.551Z,6.83
2018-10-02T06:50:46.700Z,5.90
2018-10-02T06:53:16.702Z,6.57
2018-10-02T06:55:46.835Z,7.30
2018-10-02T06:58:16.981Z,6.53
2018-10-02T07:00:47.060Z,6.63
2018-10-02T07:03:17.438Z,8.43
2018-10-02T07:05:47.467Z,6.13
2018-10-02T07:08:17.834Z,6.20
2018-10-02T07:10:48.402Z,5.80
2018-10-02T07:13:18.354Z,6.17
2018-10-02T07:15:48.348Z,6.20
2018-10-02T07:18:18.740Z,5.80
2018-10-02T07:20:49.036Z,5.90
2018-10-02T07:23:19.323Z,6.67
2018-10-02T07:25:50.711Z,5.60
2018-10-02T07:28:21.871Z,5.90
2018-10-02T07:30:52.157Z,8.47
2018-10-02T07:33:23.380Z,5.97
2018-10-02T07:35:53.702Z,7.23
2018-10-02T07:38:23.879Z,6.47
2018-10-02T07:40:54.231Z,5.73
2018-10-02T07:43:24.636Z,5.93
2018-10-02T07:45:54.598Z,6.10
2018-10-02T07:48:24.983Z,5.77
2018-10-02T07:50:55.435Z,5.37
2018-10-02T07:53:25.861Z,5.30
2018-10-02T07:55:56.022Z,4.90
2018-10-02T07:58:26.292Z,4.80
2018-10-02T08:00:56.598Z,5.73
2018-10-02T08:03:26.575Z,5.03
2018-10-02T08:05:56.548Z,4.97
2018-10-02T08:08:26.695Z,4.97
2018-10-02T08:10:56.782Z,5.30
2018-10-02T08:13:26.924Z,5.77
2018-10-02T08:15:56.995Z,5.47
2018-10-02T08:18:27.093Z,5.23
2018-10-02T08:20:57.638Z,5.00
2018-10-02T08:23:27.996Z,6.07
2018-10-02T08:25:57.975Z,5.33
2018-10-02T08:28:28.566Z,4.90
2018-10-02T08:30:59.639Z,5.23
2018-10-02T08:33:29.719Z,5.43
2018-10-02T08:35:59.924Z,6.07
2018-10-02T08:38:30.036Z,6.20
2018-10-02T08:41:00.190Z,10.67
2018-10-02T08:43:30.322Z,5.27
2018-10-02T08:46:00.319Z,5.30
2018-10-02T08:48:30.648Z,5.13
2018-10-02T08:51:00.944Z,7.60
2018-10-02T08:53:31.906Z,5.97
2018-10-02T08:56:02.081Z,5.20
2018-10-02T08:58:32.007Z,6.33
2018-10-02T09:01:02.506Z,5.50
2018-10-02T09:03:32.468Z,5.73
2018-10-02T09:06:02.764Z,6.33
2018-10-02T09:08:33.232Z,5.83
2018-10-02T09:11:03.830Z,6.53
2018-10-02T09:13:34.311Z,7.23
2018-10-02T09:16:05.632Z,5.97
2018-10-02T09:18:36.694Z,5.80
2018-10-02T09:21:06.977Z,5.30
2018-10-02T09:23:38.047Z,6.07
2018-10-02T09:26:09.585Z,7.30
2018-10-02T09:28:39.847Z,6.80
2018-10-02T09:31:14.924Z,5.67
2018-10-02T09:33:49.851Z,6.60
2018-10-02T09:36:24.883Z,5.83
2018-10-02T09:40:03.176Z,6.70
2018-10-02T09:42:38.440Z,7.07
2018-10-02T09:45:08.821Z,7.63
2018-10-02T09:47:39.052Z,6.50
2018-10-02T09:50:10.951Z,6.03
2018-10-02T09:52:42.004Z,6.40
2018-10-02T09:55:13.337Z,6.33
2018-10-02T09:57:44.699Z,5.93
2018-10-02T10:00:20.367Z,6.40
2018-10-02T10:02:55.159Z,6.70
2018-10-02T10:05:25.947Z,6.43
2018-10-02T10:07:56.355Z,7.90
2018-10-02T10:10:27.066Z,7.80
2018-10-02T10:12:56.844Z,7.07
2018-10-02T10:15:26.781Z,6.93
2018-10-02T10:17:56.618Z,11.73
2018-10-02T10:20:26.318Z,8.63
2018-10-02T10:22:56.120Z,13.30
2018-10-02T10:25:25.810Z,12.47
2018-10-02T10:27:55.539Z,12.83
2018-10-02T10:30:25.623Z,11.80
2018-10-02T10:32:55.356Z,12.50
2018-10-02T10:35:25.167Z,10.90
2018-10-02T10:37:54.975Z,12.23
2018-10-02T10:40:24.783Z,15.70
2018-10-02T10:42:54.458Z,15.10
2018-10-02T10:45:24.107Z,16.53
2018-10-02T10:47:54.359Z,10.27
2018-10-02T10:50:24.447Z,14.40
2018-10-02T10:52:54.441Z,16.13
2018-10-02T10:55:26.976Z,15.80
2018-10-02T10:57:56.757Z,17.30
2018-10-02T11:00:26.519Z,15.30
2018-10-02T11:02:56.997Z,12.40
2018-10-02T11:05:27.167Z,14.97
2018-10-02T11:07:57.573Z,11.33
2018-10-02T11:10:28.116Z,13.77
2018-10-02T11:13:00.702Z,13.90
2018-10-02T11:15:32.449Z,15.93
2018-10-02T11:18:03.740Z,13.63
2018-10-02T11:20:36.551Z,13.40
2018-10-02T11:23:07.972Z,16.00
2018-10-02T11:25:38.326Z,15.90
2018-10-02T11:28:08.547Z,20.00
2018-10-02T11:30:38.777Z,14.83
2018-10-02T11:33:08.965Z,19.23
2018-10-02T11:35:39.022Z,17.40
2018-10-02T11:38:09.400Z,16.90
2018-10-02T11:40:39.684Z,19.97
2018-10-02T11:43:09.839Z,15.10
2018-10-02T11:45:39.964Z,10.70
2018-10-02T11:48:11.320Z,11.90
2018-10-02T11:50:41.565Z,12.77
2018-10-02T11:53:12.018Z,17.10
2018-10-02T11:55:43.516Z,14.23
2018-10-02T11:58:14.686Z,15.97
2018-10-02T12:00:44.748Z,17.53
2018-10-02T12:03:15.301Z,15.47
2018-10-02T12:05:45.068Z,17.03
2018-10-02T12:08:14.899Z,20.77
2018-10-02T12:10:44.839Z,26.43
2018-10-02T12:13:14.892Z,23.60
2018-10-02T12:15:44.710Z,18.70
2018-10-02T12:18:15.545Z,20.60
2018-10-02T12:20:45.383Z,23.70
2018-10-02T12:23:18.585Z,21.93
2018-10-02T12:25:48.384Z,18.43
2018-10-02T12:28:18.442Z,21.57
2018-10-02T12:30:48.329Z,29.33
2018-10-02T12:33:18.077Z,22.90
2018-10-02T12:35:47.836Z,14.70
2018-10-02T12:38:17.572Z,25.93
2018-10-02T12:40:47.281Z,18.53
2018-10-02T12:43:19.153Z,21.23
2018-10-02T12:45:49.027Z,18.60
2018-10-02T12:48:18.717Z,27.27
2018-10-02T12:50:48.919Z,21.43
2018-10-02T12:53:18.713Z,31.63
2018-10-02T12:55:48.462Z,22.33
2018-10-02T12:58:18.091Z,20.60
2018-10-02T13:00:48.210Z,28.03
2018-10-02T13:03:19.179Z,16.07
2018-10-02T13:05:49.130Z,17.00
2018-10-02T13:08:19.597Z,23.73
2018-10-02T13:10:49.360Z,18.73
2018-10-02T13:13:19.302Z,22.80
2018-10-02T13:15:49.182Z,23.80
2018-10-02T13:18:18.917Z,25.53
2018-10-02T13:20:49.811Z,20.77
2018-10-02T13:23:21.195Z,22.70
2018-10-02T13:25:51.702Z,24.83
2018-10-02T13:28:21.615Z,27.70
2018-10-02T13:30:52.860Z,27.40
2018-10-02T13:33:25.451Z,38.33
2018-10-02T13:35:56.625Z,25.47
2018-10-02T13:38:27.194Z,30.93
2018-10-02T13:40:57.644Z,33.20
2018-10-02T13:43:28.849Z,25.47
2018-10-02T13:45:59.029Z,23.43
2018-10-02T13:48:29.288Z,34.27
2018-10-02T13:50:59.823Z,29.23
2018-10-02T13:53:30.990Z,35.63
2018-10-02T13:56:01.080Z,29.00
2018-10-02T13:58:30.913Z,31.80
2018-10-02T14:01:01.242Z,30.40
2018-10-02T14:03:33.109Z,32.50
2018-10-02T14:06:02.942Z,26.47
2018-10-02T14:08:32.799Z,25.43
2018-10-02T14:11:02.410Z,28.87
2018-10-02T14:13:32.051Z,25.43
2018-10-02T14:16:01.918Z,29.00
2018-10-02T14:18:33.189Z,26.83
2018-10-02T14:21:03.349Z,22.10
2018-10-02T14:23:33.463Z,20.97
2018-10-02T14:26:03.433Z,27.67
2018-10-02T14:28:33.382Z,23.17
2018-10-02T14:31:04.008Z,23.20
2018-10-02T14:33:35.472Z,27.97
2018-10-02T14:36:06.251Z,20.73
2018-10-02T14:38:37.420Z,23.10
2018-10-02T14:41:07.638Z,23.30
2018-10-02T14:43:41.268Z,23.77
2018-10-02T14:46:13.245Z,28.63
2018-10-02T14:48:45.135Z,18.83
2018-10-02T14:51:15.641Z,19.63
2018-10-02T14:53:45.712Z,25.43
2018-10-02T14:56:15.922Z,22.37
2018-10-02T14:58:47.099Z,26.63
2018-10-02T15:01:17.230Z,23.20
2018-10-02T15:03:47.435Z,33.37
2018-10-02T15:06:17.765Z,26.33
2018-10-02T15:08:47.516Z,27.83
2018-10-02T15:11:18.615Z,28.40
2018-10-02T15:13:50.265Z,25.77
2018-10-02T15:16:20.540Z,29.87
2018-10-02T15:18:51.019Z,25.87
2018-10-02T15:21:21.335Z,30.67
2018-10-02T15:24:02.272Z,26.57
2018-10-02T15:26:34.525Z,35.77
2018-10-02T15:29:06.325Z,60.77
2018-10-02T15:31:36.230Z,43.10
2018-10-02T15:34:08.369Z,35.10
2018-10-02T15:36:38.114Z,34.03
2018-10-02T15:39:10.937Z,24.63
2018-10-02T15:41:41.197Z,30.20
2018-10-02T15:44:12.399Z,46.33
2018-10-02T15:46:42.424Z,38.47
2018-10-02T15:49:12.337Z,35.00
2018-10-02T15:51:42.861Z,38.63
2018-10-02T15:54:13.231Z,43.07
2018-10-02T15:56:43.495Z,41.23
2018-10-02T15:59:15.718Z,47.23
2018-10-02T16:01:46.577Z,40.63
2018-10-02T16:04:17.689Z,45.53
2018-10-02T16:06:48.054Z,43.83
2018-10-02T16:09:18.401Z,45.63
2018-10-02T16:11:48.584Z,51.20
2018-10-02T16:14:18.804Z,43.07
2018-10-02T16:16:49.518Z,45.73
2018-10-02T16:19:20.901Z,39.70
2018-10-02T16:21:51.306Z,49.00
2018-10-02T16:24:21.446Z,51.57
2018-10-02T16:26:51.695Z,49.90
2018-10-02T16:29:21.942Z,49.83
2018-10-02T16:31:52.967Z,45.97
2018-10-02T16:34:24.075Z,45.50
2018-10-02T16:36:55.051Z,48.20
2018-10-02T16:39:26.013Z,50.43
2018-10-02T16:41:56.090Z,42.87
2018-10-02T16:44:26.240Z,41.33
2018-10-02T16:46:56.508Z,44.13
2018-10-02T16:49:26.829Z,42.40
2018-10-02T16:51:56.735Z,42.07
2018-10-02T16:54:26.852Z,43.93
2018-10-02T16:56:56.716Z,37.50
2018-10-02T16:59:26.628Z,40.07
2018-10-02T17:01:56.405Z,43.53
2018-10-02T17:04:26.218Z,38.23
2018-10-02T17:06:57.621Z,39.77
2018-10-02T17:09:27.380Z,41.00
2018-10-02T17:12:01.248Z,42.63
2018-10-02T17:14:31.745Z,36.20
2018-10-02T17:17:01.604Z,43.60
2018-10-02T17:19:33.150Z,36.43
2018-10-02T17:22:04.623Z,40.57
2018-10-02T17:24:35.404Z,33.20
2018-10-02T17:27:05.313Z,34.93
2018-10-02T17:29:35.893Z,32.73
2018-10-02T17:32:06.089Z,40.60
2018-10-02T17:34:36.113Z,47.70
2018-10-02T17:37:06.407Z,34.13
2018-10-02T17:39:37.433Z,82.93
2018-10-02T17:42:07.846Z,63.23
2018-10-02T17:44:38.206Z,57.83
2018-10-02T17:47:09.374Z,51.40
2018-10-02T17:49:44.467Z,54.30
2018-10-02T17:52:14.726Z,52.00
2018-10-02T17:54:45.106Z,65.53
2018-10-02T17:57:15.326Z,72.07
2018-10-02T17:59:45.337Z,74.93
2018-10-02T18:02:15.566Z,68.63
2018-10-02T18:04:52.461Z,50.80
2018-10-02T18:07:23.651Z,46.33
2018-10-02T18:09:53.524Z,47.27
2018-10-02T18:12:30.950Z,48.10
2018-10-02T18:15:01.701Z,44.67
2018-10-02T18:17:32.380Z,45.60
2018-10-02T18:20:02.157Z,54.83
2018-10-02T18:22:36.177Z,39.27
2018-10-02T18:25:05.969Z,45.43
2018-10-02T18:27:39.082Z,41.20
2018-10-02T18:30:09.069Z,39.77
2018-10-02T18:32:39.536Z,38.47
2018-10-02T18:35:10.201Z,42.97
2018-10-02T18:37:40.281Z,38.20
2018-10-02T18:40:10.810Z,35.93
2018-10-02T18:42:40.671Z,42.00
2018-10-02T18:45:11.610Z,44.60
2018-10-02T18:47:41.555Z,34.80
2018-10-02T18:50:11.424Z,39.80
2018-10-02T18:52:42.017Z,46.53
2018-10-02T18:55:12.968Z,34.97
2018-10-02T18:57:44.345Z,40.00
2018-10-02T19:00:15.365Z,32.93
2018-10-02T19:02:45.221Z,38.00
2018-10-02T19:05:14.983Z,36.00
2018-10-02T19:07:45.205Z,37.80
2018-10-02T19:10:15.314Z,40.63
2018-10-02T19:12:45.244Z,36.37
2018-10-02T19:15:15.845Z,40.80
2018-10-02T19:17:45.790Z,32.07
2018-10-02T19:20:20.963Z,39.10
2018-10-02T19:22:50.805Z,32.83
2018-10-02T19:25:25.772Z,33.87
2018-10-02T19:27:58.164Z,31.50
2018-10-02T19:30:32.780Z,33.27
2018-10-02T19:33:05.153Z,37.90
2018-10-02T19:35:35.977Z,30.37
2018-10-02T19:38:11.272Z,33.13
2018-10-02T19:40:41.980Z,31.23
2018-10-02T19:43:12.437Z,32.20
2018-10-02T19:45:48.407Z,34.87
2018-10-02T19:48:19.057Z,31.00
2018-10-02T19:50:48.918Z,23.90
2018-10-02T19:53:19.193Z,24.37
2018-10-02T19:55:49.055Z,19.30
2018-10-02T19:58:18.777Z,23.93
2018-10-02T20:00:48.582Z,23.40
2018-10-02T20:03:18.531Z,19.10
2018-10-02T20:05:48.267Z,25.07
2018-10-02T20:08:18.280Z,22.50
2018-10-02T20:10:48.135Z,23.60
2018-10-02T20:13:17.897Z,23.37
2018-10-02T20:15:47.630Z,22.93
2018-10-02T20:18:19.161Z,20.50
2018-10-02T20:20:48.926Z,20.37
2018-10-02T20:23:18.994Z,21.90
2018-10-02T20:25:50.489Z,21.40
2018-10-02T20:28:22.041Z,24.20
2018-10-02T20:30:52.375Z,21.87
2018-10-02T20:33:22.685Z,21.43
2018-10-02T20:35:54.398Z,19.20
2018-10-02T20:38:24.973Z,18.77
2018-10-02T20:40:55.456Z,17.20
2018-10-02T20:43:25.724Z,16.27
2018-10-02T20:45:56.184Z,12.90
2018-10-02T20:48:27.042Z,15.57
2018-10-02T20:50:57.383Z,14.20
2018-10-02T20:53:28.009Z,14.30
2018-10-02T20:55:58.367Z,12.50
2018-10-02T20:58:28.682Z,12.17
2018-10-02T21:01:00.691Z,15.03
2018-10-02T21:03:30.877Z,15.87
2018-10-02T21:06:01.195Z,15.43
2018-10-02T21:08:31.639Z,15.43
2018-10-02T21:11:01.753Z,18.70
2018-10-02T21:13:31.841Z,14.90
2018-10-02T21:16:02.922Z,18.03
2018-10-02T21:18:34.693Z,16.70
2018-10-02T21:21:04.923Z,17.97
2018-10-02T21:23:35.364Z,16.83
2018-10-02T21:26:05.677Z,17.70
2018-10-02T21:28:35.890Z,17.07
2018-10-02T21:31:06.138Z,17.43
2018-10-02T21:33:37.037Z,17.97
2018-10-02T21:36:07.249Z,18.93
2018-10-02T21:38:37.460Z,19.10
2018-10-02T21:41:07.986Z,18.23
2018-10-02T21:43:38.036Z,20.67
2018-10-02T21:46:08.233Z,23.47
2018-10-02T21:48:40.167Z,19.43
2018-10-02T21:51:10.387Z,16.23
2018-10-02T21:53:40.846Z,24.90
2018-10-02T21:56:11.267Z,20.77
2018-10-02T21:58:42.425Z,22.90
2018-10-02T22:01:13.586Z,21.37
2018-10-02T22:03:45.520Z,23.93
2018-10-02T22:06:16.950Z,25.77
2018-10-02T22:08:47.139Z,22.03
2018-10-02T22:11:17.225Z,24.70
2018-10-02T22:13:47.488Z,22.63
2018-10-02T22:16:18.069Z,21.70
2018-10-02T22:18:49.873Z,23.50
2018-10-02T22:21:20.281Z,26.70
2018-10-02T22:23:50.461Z,23.63
2018-10-02T22:26:21.511Z,24.73
2018-10-02T22:28:51.948Z,31.50
2018-10-02T22:31:21.788Z,27.80
2018-10-02T22:33:52.113Z,23.77
2018-10-02T22:36:22.328Z,21.23
2018-10-02T22:38:52.599Z,21.13
2018-10-02T22:41:22.952Z,20.53
2018-10-02T22:43:53.029Z,23.43
2018-10-02T22:46:23.219Z,22.70
2018-10-02T22:48:54.338Z,24.97
2018-10-02T22:51:24.463Z,26.40
2018-10-02T22:53:54.674Z,25.70
2018-10-02T22:56:24.706Z,32.77
2018-10-02T22:58:55.898Z,28.37
2018-10-02T23:01:26.431Z,29.80
2018-10-02T23:03:57.544Z,29.20
2018-10-02T23:06:28.134Z,29.83
2018-10-02T23:08:59.055Z,35.97
2018-10-02T23:11:29.986Z,37.47
2018-10-02T23:14:00.011Z,42.60
2018-10-02T23:16:30.175Z,48.63
2018-10-02T23:19:02.502Z,42.17
2018-10-02T23:21:32.658Z,43.37
2018-10-02T23:24:02.804Z,41.97
2018-10-02T23:26:33.066Z,43.40
2018-10-02T23:29:03.547Z,43.63
2018-10-02T23:31:33.816Z,36.37
2018-10-02T23:34:04.775Z,40.03
2018-10-02T23:36:36.042Z,41.47
2018-10-02T23:39:07.706Z,37.90
2018-10-02T23:41:38.214Z,31.90
2018-10-02T23:44:08.508Z,36.60
2018-10-02T23:46:38.844Z,32.90
2018-10-02T23:49:09.045Z,35.37
2018-10-02T23:51:39.283Z,29.60
2018-10-02T23:54:10.690Z,43.10
2018-10-02T23:56:41.029Z,47.77
2018-10-02T23:59:11.532Z,57.73
